sensor_id;sensor_type;location;lat;lon;timestamp;P1;durP1;ratioP1;P2;durP2;ratioP2
8893;SDS011;4483;48.622;9.230;2024-03-08T00:00:58;15.00;;;11.13;;
8893;SDS011;4483;48.622;9.230;2024-03-08T00:03:25;17.90;;;11.10;;
8893;SDS011;4483;48.622;9.230;2024-03-08T00:05:51;14.97;;;10.37;;
8893;SDS011;4483;48.622;9.230;2024-03-08T00:08:18;14.63;;;9.80;;
8893;SDS011;4483;48.622;9.230;2024-03-08T00:10:46;15.93;;;10.00;;
8893;SDS011;4483;48.622;9.230;2024-03-08T00:13:13;14.77;;;10.30;;
8893;SDS011;4483;48.622;9.230;2024-03-08T00:15:39;15.10;;;10.70;;
8893;SDS011;4483;48.622;9.230;2024-03-08T00:18:07;13.37;;;10.40;;
8893;SDS011;4483;48.622;9.230;2024-03-08T00:20:34;14.97;;;10.60;;
8893;SDS011;4483;48.622;9.230;2024-03-08T00:23:00;13.43;;;10.60;;
8893;SDS011;4483;48.622;9.230;2024-03-08T00:25:27;15.70;;;11.17;;
8893;SDS011;4483;48.622;9.230;2024-03-08T00:27:55;15.07;;;10.53;;
8893;SDS011;4483;48.622;9.230;2024-03-08T00:30:22;15.60;;;10.90;;
8893;SDS011;4483;48.622;9.230;2024-03-08T00:32:50;15.93;;;11.10;;
8893;SDS011;4483;48.622;9.230;2024-03-08T00:35:16;22.33;;;11.67;;
8893;SDS011;4483;48.622;9.230;2024-03-08T00:37:43;16.00;;;11.23;;
8893;SDS011;4483;48.622;9.230;2024-03-08T00:40:12;15.10;;;10.70;;
8893;SDS011;4483;48.622;9.230;2024-03-08T00:42:39;13.87;;;10.07;;
8893;SDS011;4483;48.622;9.230;2024-03-08T00:45:08;15.97;;;10.83;;
8893;SDS011;4483;48.622;9.230;2024-03-08T00:47:35;14.97;;;11.23;;
8893;SDS011;4483;48.622;9.230;2024-03-08T00:50:02;14.20;;;10.50;;
8893;SDS011;4483;48.622;9.230;2024-03-08T00:52:29;14.53;;;10.77;;
8893;SDS011;4483;48.622;9.230;2024-03-08T00:54:56;17.57;;;11.33;;
8893;SDS011;4483;48.622;9.230;2024-03-08T00:57:22;14.70;;;10.63;;
8893;SDS011;4483;48.622;9.230;2024-03-08T00:59:49;17.30;;;11.17;;
8893;SDS011;4483;48.622;9.230;2024-03-08T01:02:17;18.03;;;11.37;;
8893;SDS011;4483;48.622;9.230;2024-03-08T01:04:44;12.90;;;9.60;;
8893;SDS011;4483;48.622;9.230;2024-03-08T01:07:12;15.63;;;9.97;;
8893;SDS011;4483;48.622;9.230;2024-03-08T01:09:38;16.73;;;10.47;;
8893;SDS011;4483;48.622;9.230;2024-03-08T01:12:05;13.57;;;10.27;;
8893;SDS011;4483;48.622;9.230;2024-03-08T01:14:33;16.30;;;10.73;;
8893;SDS011;4483;48.622;9.230;2024-03-08T01:16:59;15.30;;;10.67;;
8893;SDS011;4483;48.622;9.230;2024-03-08T01:19:27;13.80;;;10.20;;
8893;SDS011;4483;48.622;9.230;2024-03-08T01:21:54;14.30;;;10.70;;
8893;SDS011;4483;48.622;9.230;2024-03-08T01:24:21;13.53;;;9.93;;
8893;SDS011;4483;48.622;9.230;2024-03-08T01:26:48;14.17;;;10.47;;
8893;SDS011;4483;48.622;9.230;2024-03-08T01:29:15;14.40;;;10.27;;
8893;SDS011;4483;48.622;9.230;2024-03-08T01:31:41;15.53;;;10.30;;
8893;SDS011;4483;48.622;9.230;2024-03-08T01:34:08;12.77;;;9.77;;
8893;SDS011;4483;48.622;9.230;2024-03-08T01:36:36;14.53;;;10.60;;
8893;SDS011;4483;48.622;9.230;2024-03-08T01:39:03;13.43;;;9.97;;
8893;SDS011;4483;48.622;9.230;2024-03-08T01:41:32;13.67;;;10.27;;
8893;SDS011;4483;48.622;9.230;2024-03-08T01:44:00;14.70;;;9.93;;
8893;SDS011;4483;48.622;9.230;2024-03-08T01:46:28;14.47;;;10.87;;
8893;SDS011;4483;48.622;9.230;2024-03-08T01:48:56;15.07;;;10.90;;
8893;SDS011;4483;48.622;9.230;2024-03-08T01:51:23;15.53;;;10.20;;
8893;SDS011;4483;48.622;9.230;2024-03-08T01:53:51;18.93;;;10.83;;
8893;SDS011;4483;48.622;9.230;2024-03-08T01:56:18;15.93;;;11.10;;
8893;SDS011;4483;48.622;9.230;2024-03-08T01:58:45;14.50;;;10.87;;
8893;SDS011;4483;48.622;9.230;2024-03-08T02:01:12;15.27;;;9.67;;
8893;SDS011;4483;48.622;9.230;2024-03-08T02:03:40;13.33;;;10.20;;
8893;SDS011;4483;48.622;9.230;2024-03-08T02:06:09;12.13;;;9.73;;
8893;SDS011;4483;48.622;9.230;2024-03-08T02:08:35;13.00;;;10.00;;
8893;SDS011;4483;48.622;9.230;2024-03-08T02:11:04;14.60;;;9.90;;
8893;SDS011;4483;48.622;9.230;2024-03-08T02:13:30;13.93;;;10.40;;
8893;SDS011;4483;48.622;9.230;2024-03-08T02:15:58;15.17;;;9.83;;
8893;SDS011;4483;48.622;9.230;2024-03-08T02:18:26;13.33;;;9.33;;
8893;SDS011;4483;48.622;9.230;2024-03-08T02:20:55;16.03;;;11.10;;
8893;SDS011;4483;48.622;9.230;2024-03-08T02:23:22;14.43;;;10.13;;
8893;SDS011;4483;48.622;9.230;2024-03-08T02:25:50;13.37;;;10.17;;
8893;SDS011;4483;48.622;9.230;2024-03-08T02:28:17;13.77;;;10.00;;
8893;SDS011;4483;48.622;9.230;2024-03-08T02:30:44;13.70;;;10.03;;
8893;SDS011;4483;48.622;9.230;2024-03-08T02:33:13;13.87;;;10.33;;
8893;SDS011;4483;48.622;9.230;2024-03-08T02:35:41;13.87;;;10.67;;
8893;SDS011;4483;48.622;9.230;2024-03-08T02:38:12;17.93;;;10.90;;
8893;SDS011;4483;48.622;9.230;2024-03-08T02:40:41;15.17;;;10.97;;
8893;SDS011;4483;48.622;9.230;2024-03-08T02:43:08;14.73;;;9.87;;
8893;SDS011;4483;48.622;9.230;2024-03-08T02:45:34;15.27;;;10.10;;
8893;SDS011;4483;48.622;9.230;2024-03-08T02:48:01;14.00;;;9.40;;
8893;SDS011;4483;48.622;9.230;2024-03-08T02:50:28;15.03;;;9.77;;
8893;SDS011;4483;48.622;9.230;2024-03-08T02:52:54;18.10;;;10.43;;
8893;SDS011;4483;48.622;9.230;2024-03-08T02:55:22;14.73;;;9.33;;
8893;SDS011;4483;48.622;9.230;2024-03-08T02:57:51;14.30;;;9.80;;
8893;SDS011;4483;48.622;9.230;2024-03-08T03:00:19;13.83;;;9.97;;
8893;SDS011;4483;48.622;9.230;2024-03-08T03:02:46;18.63;;;10.77;;
8893;SDS011;4483;48.622;9.230;2024-03-08T03:05:13;14.60;;;10.20;;
8893;SDS011;4483;48.622;9.230;2024-03-08T03:07:39;15.07;;;10.27;;
8893;SDS011;4483;48.622;9.230;2024-03-08T03:10:06;13.30;;;9.43;;
8893;SDS011;4483;48.622;9.230;2024-03-08T03:12:35;15.23;;;10.10;;
8893;SDS011;4483;48.622;9.230;2024-03-08T03:15:03;14.53;;;9.67;;
8893;SDS011;4483;48.622;9.230;2024-03-08T03:17:31;15.13;;;10.30;;
8893;SDS011;4483;48.622;9.230;2024-03-08T03:19:58;16.07;;;9.40;;
8893;SDS011;4483;48.622;9.230;2024-03-08T03:22:27;13.33;;;9.30;;
8893;SDS011;4483;48.622;9.230;2024-03-08T03:24:55;16.03;;;10.00;;
8893;SDS011;4483;48.622;9.230;2024-03-08T03:27:23;14.07;;;9.77;;
8893;SDS011;4483;48.622;9.230;2024-03-08T03:29:51;13.63;;;9.40;;
8893;SDS011;4483;48.622;9.230;2024-03-08T03:32:17;14.23;;;10.30;;
8893;SDS011;4483;48.622;9.230;2024-03-08T03:34:44;15.63;;;9.30;;
8893;SDS011;4483;48.622;9.230;2024-03-08T03:37:11;14.87;;;10.43;;
8893;SDS011;4483;48.622;9.230;2024-03-08T03:39:38;12.77;;;9.60;;
8893;SDS011;4483;48.622;9.230;2024-03-08T03:42:13;13.90;;;9.53;;
8893;SDS011;4483;48.622;9.230;2024-03-08T03:44:41;12.37;;;9.03;;
8893;SDS011;4483;48.622;9.230;2024-03-08T03:47:09;13.40;;;9.47;;
8893;SDS011;4483;48.622;9.230;2024-03-08T03:49:36;15.00;;;9.67;;
8893;SDS011;4483;48.622;9.230;2024-03-08T03:52:03;15.20;;;9.43;;
8893;SDS011;4483;48.622;9.230;2024-03-08T03:54:29;15.20;;;9.20;;
8893;SDS011;4483;48.622;9.230;2024-03-08T03:56:56;14.70;;;9.60;;
8893;SDS011;4483;48.622;9.230;2024-03-08T03:59:23;15.23;;;9.70;;
8893;SDS011;4483;48.622;9.230;2024-03-08T04:01:50;15.47;;;10.27;;
8893;SDS011;4483;48.622;9.230;2024-03-08T04:04:18;14.33;;;9.77;;
8893;SDS011;4483;48.622;9.230;2024-03-08T04:06:44;17.07;;;10.10;;
8893;SDS011;4483;48.622;9.230;2024-03-08T04:09:11;15.37;;;9.30;;
8893;SDS011;4483;48.622;9.230;2024-03-08T04:11:38;15.73;;;10.03;;
8893;SDS011;4483;48.622;9.230;2024-03-08T04:14:05;14.87;;;9.10;;
8893;SDS011;4483;48.622;9.230;2024-03-08T04:16:32;13.80;;;9.80;;
8893;SDS011;4483;48.622;9.230;2024-03-08T04:18:59;15.00;;;10.13;;
8893;SDS011;4483;48.622;9.230;2024-03-08T04:21:31;15.03;;;9.87;;
8893;SDS011;4483;48.622;9.230;2024-03-08T04:23:57;13.43;;;9.47;;
8893;SDS011;4483;48.622;9.230;2024-03-08T04:26:24;14.67;;;8.83;;
8893;SDS011;4483;48.622;9.230;2024-03-08T04:28:51;12.33;;;9.63;;
8893;SDS011;4483;48.622;9.230;2024-03-08T04:31:18;13.30;;;9.43;;
8893;SDS011;4483;48.622;9.230;2024-03-08T04:33:44;15.30;;;9.70;;
8893;SDS011;4483;48.622;9.230;2024-03-08T04:36:11;19.63;;;10.37;;
8893;SDS011;4483;48.622;9.230;2024-03-08T04:38:40;14.77;;;9.33;;
8893;SDS011;4483;48.622;9.230;2024-03-08T04:41:06;14.53;;;10.03;;
8893;SDS011;4483;48.622;9.230;2024-03-08T04:43:33;14.03;;;9.97;;
8893;SDS011;4483;48.622;9.230;2024-03-08T04:46:01;12.33;;;8.90;;
8893;SDS011;4483;48.622;9.230;2024-03-08T04:48:28;13.97;;;9.37;;
8893;SDS011;4483;48.622;9.230;2024-03-08T04:50:55;18.93;;;9.60;;
8893;SDS011;4483;48.622;9.230;2024-03-08T04:53:22;13.67;;;9.00;;
8893;SDS011;4483;48.622;9.230;2024-03-08T04:55:50;15.63;;;9.53;;
8893;SDS011;4483;48.622;9.230;2024-03-08T04:58:16;15.43;;;9.73;;
8893;SDS011;4483;48.622;9.230;2024-03-08T05:00:43;16.07;;;9.53;;
8893;SDS011;4483;48.622;9.230;2024-03-08T05:03:10;18.33;;;9.50;;
8893;SDS011;4483;48.622;9.230;2024-03-08T05:05:36;16.27;;;10.40;;
8893;SDS011;4483;48.622;9.230;2024-03-08T05:08:03;14.90;;;9.40;;
8893;SDS011;4483;48.622;9.230;2024-03-08T05:10:30;13.37;;;9.50;;
8893;SDS011;4483;48.622;9.230;2024-03-08T05:12:59;12.27;;;9.47;;
8893;SDS011;4483;48.622;9.230;2024-03-08T05:15:25;14.30;;;9.30;;
8893;SDS011;4483;48.622;9.230;2024-03-08T05:17:52;14.23;;;9.80;;
8893;SDS011;4483;48.622;9.230;2024-03-08T05:20:21;14.07;;;9.60;;
8893;SDS011;4483;48.622;9.230;2024-03-08T05:22:47;13.70;;;9.20;;
8893;SDS011;4483;48.622;9.230;2024-03-08T05:25:14;14.70;;;9.47;;
8893;SDS011;4483;48.622;9.230;2024-03-08T05:27:41;12.80;;;9.33;;
8893;SDS011;4483;48.622;9.230;2024-03-08T05:30:09;16.70;;;9.40;;
8893;SDS011;4483;48.622;9.230;2024-03-08T05:32:40;12.17;;;8.70;;
8893;SDS011;4483;48.622;9.230;2024-03-08T05:35:09;13.33;;;9.90;;
8893;SDS011;4483;48.622;9.230;2024-03-08T05:37:37;12.93;;;9.30;;
8893;SDS011;4483;48.622;9.230;2024-03-08T05:40:04;14.63;;;9.83;;
8893;SDS011;4483;48.622;9.230;2024-03-08T05:42:34;15.03;;;9.43;;
8893;SDS011;4483;48.622;9.230;2024-03-08T05:45:01;15.33;;;10.57;;
8893;SDS011;4483;48.622;9.230;2024-03-08T05:47:29;14.20;;;9.00;;
8893;SDS011;4483;48.622;9.230;2024-03-08T05:49:56;12.20;;;8.90;;
8893;SDS011;4483;48.622;9.230;2024-03-08T05:52:22;14.30;;;9.97;;
8893;SDS011;4483;48.622;9.230;2024-03-08T05:54:49;16.93;;;9.33;;
8893;SDS011;4483;48.622;9.230;2024-03-08T05:57:15;15.47;;;9.87;;
8893;SDS011;4483;48.622;9.230;2024-03-08T05:59:42;13.30;;;9.43;;
8893;SDS011;4483;48.622;9.230;2024-03-08T06:02:09;13.97;;;9.37;;
8893;SDS011;4483;48.622;9.230;2024-03-08T06:04:37;15.23;;;9.53;;
8893;SDS011;4483;48.622;9.230;2024-03-08T06:07:04;15.27;;;9.80;;
8893;SDS011;4483;48.622;9.230;2024-03-08T06:09:30;12.47;;;9.17;;
8893;SDS011;4483;48.622;9.230;2024-03-08T06:11:57;13.57;;;9.73;;
8893;SDS011;4483;48.622;9.230;2024-03-08T06:14:24;16.30;;;10.00;;
8893;SDS011;4483;48.622;9.230;2024-03-08T06:16:50;15.83;;;10.20;;
8893;SDS011;4483;48.622;9.230;2024-03-08T06:19:17;11.90;;;9.10;;
8893;SDS011;4483;48.622;9.230;2024-03-08T06:21:45;15.57;;;10.17;;
8893;SDS011;4483;48.622;9.230;2024-03-08T06:24:11;15.10;;;10.17;;
8893;SDS011;4483;48.622;9.230;2024-03-08T06:26:40;15.20;;;10.17;;
8893;SDS011;4483;48.622;9.230;2024-03-08T06:29:06;14.40;;;9.90;;
8893;SDS011;4483;48.622;9.230;2024-03-08T06:31:33;17.97;;;10.60;;
8893;SDS011;4483;48.622;9.230;2024-03-08T06:33:59;15.90;;;9.97;;
8893;SDS011;4483;48.622;9.230;2024-03-08T06:36:26;18.83;;;10.23;;
8893;SDS011;4483;48.622;9.230;2024-03-08T06:38:54;16.47;;;9.97;;
8893;SDS011;4483;48.622;9.230;2024-03-08T06:41:22;14.47;;;10.70;;
8893;SDS011;4483;48.622;9.230;2024-03-08T06:43:48;13.87;;;10.40;;
8893;SDS011;4483;48.622;9.230;2024-03-08T06:46:16;16.03;;;10.53;;
8893;SDS011;4483;48.622;9.230;2024-03-08T06:48:45;15.33;;;10.37;;
8893;SDS011;4483;48.622;9.230;2024-03-08T06:51:12;14.63;;;10.23;;
8893;SDS011;4483;48.622;9.230;2024-03-08T06:53:39;19.03;;;10.53;;
8893;SDS011;4483;48.622;9.230;2024-03-08T06:56:07;16.70;;;11.10;;
8893;SDS011;4483;48.622;9.230;2024-03-08T06:58:34;14.03;;;9.87;;
8893;SDS011;4483;48.622;9.230;2024-03-08T07:01:00;15.23;;;10.90;;
8893;SDS011;4483;48.622;9.230;2024-03-08T07:03:29;15.00;;;9.90;;
8893;SDS011;4483;48.622;9.230;2024-03-08T07:05:57;15.03;;;10.40;;
8893;SDS011;4483;48.622;9.230;2024-03-08T07:08:24;14.07;;;10.07;;
8893;SDS011;4483;48.622;9.230;2024-03-08T07:10:52;17.57;;;11.40;;
8893;SDS011;4483;48.622;9.230;2024-03-08T07:13:20;14.93;;;10.80;;
8893;SDS011;4483;48.622;9.230;2024-03-08T07:15:46;16.43;;;10.80;;
8893;SDS011;4483;48.622;9.230;2024-03-08T07:18:13;16.37;;;11.17;;
8893;SDS011;4483;48.622;9.230;2024-03-08T07:20:40;18.70;;;11.23;;
8893;SDS011;4483;48.622;9.230;2024-03-08T07:23:08;16.67;;;11.07;;
8893;SDS011;4483;48.622;9.230;2024-03-08T07:25:35;18.03;;;12.47;;
8893;SDS011;4483;48.622;9.230;2024-03-08T07:28:04;19.67;;;12.30;;
8893;SDS011;4483;48.622;9.230;2024-03-08T07:30:32;18.13;;;11.77;;
8893;SDS011;4483;48.622;9.230;2024-03-08T07:33:16;20.27;;;13.33;;
8893;SDS011;4483;48.622;9.230;2024-03-08T07:35:43;17.70;;;12.30;;
8893;SDS011;4483;48.622;9.230;2024-03-08T07:38:10;20.10;;;12.60;;
8893;SDS011;4483;48.622;9.230;2024-03-08T07:40:37;18.27;;;11.60;;
8893;SDS011;4483;48.622;9.230;2024-03-08T07:43:05;15.80;;;11.13;;
8893;SDS011;4483;48.622;9.230;2024-03-08T07:45:33;17.90;;;11.73;;
8893;SDS011;4483;48.622;9.230;2024-03-08T07:48:00;18.00;;;11.60;;
8893;SDS011;4483;48.622;9.230;2024-03-08T07:50:28;17.17;;;11.40;;
8893;SDS011;4483;48.622;9.230;2024-03-08T07:52:54;16.87;;;11.60;;
8893;SDS011;4483;48.622;9.230;2024-03-08T07:55:21;15.47;;;11.37;;
8893;SDS011;4483;48.622;9.230;2024-03-08T07:57:49;16.70;;;11.63;;
8893;SDS011;4483;48.622;9.230;2024-03-08T08:00:16;15.40;;;11.20;;
8893;SDS011;4483;48.622;9.230;2024-03-08T08:02:45;17.30;;;10.80;;
8893;SDS011;4483;48.622;9.230;2024-03-08T08:05:11;18.57;;;10.73;;
8893;SDS011;4483;48.622;9.230;2024-03-08T08:07:38;16.53;;;10.77;;
8893;SDS011;4483;48.622;9.230;2024-03-08T08:10:06;15.27;;;10.37;;
8893;SDS011;4483;48.622;9.230;2024-03-08T08:12:40;14.87;;;10.97;;
8893;SDS011;4483;48.622;9.230;2024-03-08T08:15:07;17.60;;;11.97;;
8893;SDS011;4483;48.622;9.230;2024-03-08T08:17:34;16.93;;;11.80;;
8893;SDS011;4483;48.622;9.230;2024-03-08T08:20:02;17.23;;;11.73;;
8893;SDS011;4483;48.622;9.230;2024-03-08T08:22:30;19.03;;;11.73;;
8893;SDS011;4483;48.622;9.230;2024-03-08T08:24:57;18.50;;;12.63;;
8893;SDS011;4483;48.622;9.230;2024-03-08T08:27:23;23.47;;;15.00;;
8893;SDS011;4483;48.622;9.230;2024-03-08T08:29:51;20.53;;;14.10;;
8893;SDS011;4483;48.622;9.230;2024-03-08T08:32:18;20.30;;;14.07;;
8893;SDS011;4483;48.622;9.230;2024-03-08T08:34:45;19.17;;;13.23;;
8893;SDS011;4483;48.622;9.230;2024-03-08T08:37:13;20.50;;;13.23;;
8893;SDS011;4483;48.622;9.230;2024-03-08T08:39:39;19.90;;;12.97;;
8893;SDS011;4483;48.622;9.230;2024-03-08T08:42:06;16.33;;;11.80;;
8893;SDS011;4483;48.622;9.230;2024-03-08T08:44:34;16.77;;;11.90;;
8893;SDS011;4483;48.622;9.230;2024-03-08T08:47:00;15.57;;;12.07;;
8893;SDS011;4483;48.622;9.230;2024-03-08T08:49:28;17.10;;;12.90;;
8893;SDS011;4483;48.622;9.230;2024-03-08T08:51:55;19.30;;;12.17;;
8893;SDS011;4483;48.622;9.230;2024-03-08T08:54:24;21.33;;;13.43;;
8893;SDS011;4483;48.622;9.230;2024-03-08T08:56:52;19.60;;;13.53;;
8893;SDS011;4483;48.622;9.230;2024-03-08T08:59:19;18.30;;;12.80;;
8893;SDS011;4483;48.622;9.230;2024-03-08T09:01:48;25.07;;;14.20;;
8893;SDS011;4483;48.622;9.230;2024-03-08T09:04:15;18.63;;;13.07;;
8893;SDS011;4483;48.622;9.230;2024-03-08T09:06:41;19.43;;;12.30;;
8893;SDS011;4483;48.622;9.230;2024-03-08T09:09:10;16.10;;;11.37;;
8893;SDS011;4483;48.622;9.230;2024-03-08T09:11:39;17.17;;;11.43;;
8893;SDS011;4483;48.622;9.230;2024-03-08T09:14:07;20.57;;;11.50;;
8893;SDS011;4483;48.622;9.230;2024-03-08T09:16:33;14.80;;;11.10;;
8893;SDS011;4483;48.622;9.230;2024-03-08T09:19:00;20.10;;;12.83;;
8893;SDS011;4483;48.622;9.230;2024-03-08T09:21:27;15.73;;;11.30;;
8893;SDS011;4483;48.622;9.230;2024-03-08T09:23:53;15.47;;;10.57;;
8893;SDS011;4483;48.622;9.230;2024-03-08T09:26:20;14.90;;;10.93;;
8893;SDS011;4483;48.622;9.230;2024-03-08T09:28:48;14.70;;;10.27;;
8893;SDS011;4483;48.622;9.230;2024-03-08T09:31:16;11.97;;;9.23;;
8893;SDS011;4483;48.622;9.230;2024-03-08T09:33:43;15.30;;;10.50;;
8893;SDS011;4483;48.622;9.230;2024-03-08T09:36:10;13.40;;;10.13;;
8893;SDS011;4483;48.622;9.230;2024-03-08T09:38:37;13.17;;;9.73;;
8893;SDS011;4483;48.622;9.230;2024-03-08T09:41:04;14.77;;;10.60;;
8893;SDS011;4483;48.622;9.230;2024-03-08T09:43:31;14.07;;;10.20;;
8893;SDS011;4483;48.622;9.230;2024-03-08T09:45:59;13.07;;;9.57;;
8893;SDS011;4483;48.622;9.230;2024-03-08T09:48:25;15.37;;;10.03;;
8893;SDS011;4483;48.622;9.230;2024-03-08T09:50:54;11.90;;;9.10;;
8893;SDS011;4483;48.622;9.230;2024-03-08T09:53:21;14.37;;;9.93;;
8893;SDS011;4483;48.622;9.230;2024-03-08T09:55:48;16.23;;;10.07;;
8893;SDS011;4483;48.622;9.230;2024-03-08T09:58:16;12.30;;;9.80;;
8893;SDS011;4483;48.622;9.230;2024-03-08T10:01:02;13.63;;;10.37;;
8893;SDS011;4483;48.622;9.230;2024-03-08T10:03:29;13.57;;;10.40;;
8893;SDS011;4483;48.622;9.230;2024-03-08T10:05:57;12.73;;;9.23;;
8893;SDS011;4483;48.622;9.230;2024-03-08T10:08:25;13.13;;;9.83;;
8893;SDS011;4483;48.622;9.230;2024-03-08T10:10:52;15.47;;;10.40;;
8893;SDS011;4483;48.622;9.230;2024-03-08T10:13:18;12.30;;;9.23;;
8893;SDS011;4483;48.622;9.230;2024-03-08T10:15:45;12.70;;;9.10;;
8893;SDS011;4483;48.622;9.230;2024-03-08T10:18:13;14.27;;;10.00;;
8893;SDS011;4483;48.622;9.230;2024-03-08T10:20:40;11.60;;;9.13;;
8893;SDS011;4483;48.622;9.230;2024-03-08T10:23:08;11.03;;;9.20;;
8893;SDS011;4483;48.622;9.230;2024-03-08T10:25:35;12.33;;;9.70;;
8893;SDS011;4483;48.622;9.230;2024-03-08T10:28:03;18.87;;;9.87;;
8893;SDS011;4483;48.622;9.230;2024-03-08T10:30:30;13.07;;;9.63;;
8893;SDS011;4483;48.622;9.230;2024-03-08T10:32:57;13.00;;;9.50;;
8893;SDS011;4483;48.622;9.230;2024-03-08T10:35:25;11.37;;;8.87;;
8893;SDS011;4483;48.622;9.230;2024-03-08T10:37:52;11.10;;;8.87;;
8893;SDS011;4483;48.622;9.230;2024-03-08T10:40:24;13.67;;;8.80;;
8893;SDS011;4483;48.622;9.230;2024-03-08T10:42:52;11.87;;;9.33;;
8893;SDS011;4483;48.622;9.230;2024-03-08T10:45:23;13.23;;;8.87;;
8893;SDS011;4483;48.622;9.230;2024-03-08T10:48:01;12.10;;;9.23;;
8893;SDS011;4483;48.622;9.230;2024-03-08T10:50:36;12.00;;;9.03;;
8893;SDS011;4483;48.622;9.230;2024-03-08T10:53:04;15.07;;;9.40;;
8893;SDS011;4483;48.622;9.230;2024-03-08T10:55:32;14.07;;;9.63;;
8893;SDS011;4483;48.622;9.230;2024-03-08T10:58:00;15.13;;;9.03;;
8893;SDS011;4483;48.622;9.230;2024-03-08T11:00:26;11.87;;;9.07;;
8893;SDS011;4483;48.622;9.230;2024-03-08T11:02:53;14.53;;;9.93;;
8893;SDS011;4483;48.622;9.230;2024-03-08T11:05:31;11.37;;;9.40;;
8893;SDS011;4483;48.622;9.230;2024-03-08T11:08:02;12.40;;;8.87;;
8893;SDS011;4483;48.622;9.230;2024-03-08T11:10:29;10.37;;;8.40;;
8893;SDS011;4483;48.622;9.230;2024-03-08T11:12:56;10.30;;;8.73;;
8893;SDS011;4483;48.622;9.230;2024-03-08T11:15:23;11.13;;;8.90;;
8893;SDS011;4483;48.622;9.230;2024-03-08T11:17:50;10.23;;;8.47;;
8893;SDS011;4483;48.622;9.230;2024-03-08T11:20:20;11.50;;;8.60;;
8893;SDS011;4483;48.622;9.230;2024-03-08T11:22:47;10.57;;;8.63;;
8893;SDS011;4483;48.622;9.230;2024-03-08T11:25:33;10.17;;;8.17;;
8893;SDS011;4483;48.622;9.230;2024-03-08T11:33:49;10.20;;;8.60;;
8893;SDS011;4483;48.622;9.230;2024-03-08T11:36:20;11.80;;;8.10;;
8893;SDS011;4483;48.622;9.230;2024-03-08T11:38:47;12.43;;;9.50;;
8893;SDS011;4483;48.622;9.230;2024-03-08T11:41:15;11.17;;;9.10;;
8893;SDS011;4483;48.622;9.230;2024-03-08T11:43:44;10.67;;;9.03;;
8893;SDS011;4483;48.622;9.230;2024-03-08T11:46:12;10.67;;;9.00;;
8893;SDS011;4483;48.622;9.230;2024-03-08T11:48:39;11.87;;;9.07;;
8893;SDS011;4483;48.622;9.230;2024-03-08T11:51:07;16.43;;;8.83;;
8893;SDS011;4483;48.622;9.230;2024-03-08T11:53:35;9.83;;;8.83;;
8893;SDS011;4483;48.622;9.230;2024-03-08T11:56:05;10.57;;;8.47;;
8893;SDS011;4483;48.622;9.230;2024-03-08T11:58:35;11.20;;;9.87;;
8893;SDS011;4483;48.622;9.230;2024-03-08T12:01:03;11.57;;;9.33;;
8893;SDS011;4483;48.622;9.230;2024-03-08T12:03:31;12.40;;;9.20;;
8893;SDS011;4483;48.622;9.230;2024-03-08T12:05:59;13.50;;;11.00;;
8893;SDS011;4483;48.622;9.230;2024-03-08T12:08:26;10.53;;;9.43;;
8893;SDS011;4483;48.622;9.230;2024-03-08T12:10:54;12.53;;;9.10;;
8893;SDS011;4483;48.622;9.230;2024-03-08T12:13:24;12.73;;;9.87;;
8893;SDS011;4483;48.622;9.230;2024-03-08T12:15:55;10.97;;;9.40;;
8893;SDS011;4483;48.622;9.230;2024-03-08T12:18:24;13.30;;;10.20;;
8893;SDS011;4483;48.622;9.230;2024-03-08T12:20:51;10.97;;;9.07;;
8893;SDS011;4483;48.622;9.230;2024-03-08T12:23:18;12.37;;;9.40;;
8893;SDS011;4483;48.622;9.230;2024-03-08T12:25:44;12.27;;;10.03;;
8893;SDS011;4483;48.622;9.230;2024-03-08T12:28:12;12.40;;;9.60;;
8893;SDS011;4483;48.622;9.230;2024-03-08T12:30:45;12.27;;;9.80;;
8893;SDS011;4483;48.622;9.230;2024-03-08T12:33:14;12.37;;;9.83;;
8893;SDS011;4483;48.622;9.230;2024-03-08T12:35:49;11.03;;;9.30;;
8893;SDS011;4483;48.622;9.230;2024-03-08T12:38:18;12.87;;;9.40;;
8893;SDS011;4483;48.622;9.230;2024-03-08T12:40:49;11.83;;;9.97;;
8893;SDS011;4483;48.622;9.230;2024-03-08T12:43:18;13.00;;;9.20;;
8893;SDS011;4483;48.622;9.230;2024-03-08T12:45:45;10.57;;;9.07;;
8893;SDS011;4483;48.622;9.230;2024-03-08T12:48:13;12.10;;;10.17;;
8893;SDS011;4483;48.622;9.230;2024-03-08T12:50:41;11.60;;;9.60;;
8893;SDS011;4483;48.622;9.230;2024-03-08T12:53:10;13.10;;;9.47;;
8893;SDS011;4483;48.622;9.230;2024-03-08T12:55:37;11.90;;;9.43;;
8893;SDS011;4483;48.622;9.230;2024-03-08T12:58:03;11.60;;;9.93;;
8893;SDS011;4483;48.622;9.230;2024-03-08T13:00:32;12.27;;;10.20;;
8893;SDS011;4483;48.622;9.230;2024-03-08T13:03:01;13.53;;;9.70;;
8893;SDS011;4483;48.622;9.230;2024-03-08T13:05:29;11.47;;;9.70;;
8893;SDS011;4483;48.622;9.230;2024-03-08T13:07:55;13.27;;;10.30;;
8893;SDS011;4483;48.622;9.230;2024-03-08T13:10:22;13.23;;;10.60;;
8893;SDS011;4483;48.622;9.230;2024-03-08T13:12:49;12.77;;;10.20;;
8893;SDS011;4483;48.622;9.230;2024-03-08T13:15:17;13.07;;;10.57;;
8893;SDS011;4483;48.622;9.230;2024-03-08T13:17:45;11.40;;;9.43;;
8893;SDS011;4483;48.622;9.230;2024-03-08T13:20:13;11.73;;;9.47;;
8893;SDS011;4483;48.622;9.230;2024-03-08T13:22:45;15.53;;;11.40;;
8893;SDS011;4483;48.622;9.230;2024-03-08T13:25:11;12.00;;;9.90;;
8893;SDS011;4483;48.622;9.230;2024-03-08T13:27:38;12.87;;;9.63;;
8893;SDS011;4483;48.622;9.230;2024-03-08T13:30:06;12.53;;;9.83;;
8893;SDS011;4483;48.622;9.230;2024-03-08T13:32:37;11.52;;;9.68;;
8893;SDS011;4483;48.622;9.230;2024-03-08T13:35:05;12.77;;;10.23;;
8893;SDS011;4483;48.622;9.230;2024-03-08T13:37:37;12.33;;;10.40;;
8893;SDS011;4483;48.622;9.230;2024-03-08T13:40:06;11.93;;;10.37;;
8893;SDS011;4483;48.622;9.230;2024-03-08T13:42:36;12.43;;;9.83;;
8893;SDS011;4483;48.622;9.230;2024-03-08T13:45:03;14.57;;;10.10;;
8893;SDS011;4483;48.622;9.230;2024-03-08T13:47:32;13.07;;;10.20;;
8893;SDS011;4483;48.622;9.230;2024-03-08T13:49:59;12.67;;;9.63;;
8893;SDS011;4483;48.622;9.230;2024-03-08T13:52:29;13.67;;;9.83;;
8893;SDS011;4483;48.622;9.230;2024-03-08T13:54:55;16.10;;;9.83;;
8893;SDS011;4483;48.622;9.230;2024-03-08T13:57:24;12.37;;;10.73;;
8893;SDS011;4483;48.622;9.230;2024-03-08T13:59:50;17.93;;;10.77;;
8893;SDS011;4483;48.622;9.230;2024-03-08T14:02:17;13.20;;;10.57;;
8893;SDS011;4483;48.622;9.230;2024-03-08T14:04:43;12.87;;;9.93;;
8893;SDS011;4483;48.622;9.230;2024-03-08T14:07:10;14.23;;;9.87;;
8893;SDS011;4483;48.622;9.230;2024-03-08T14:09:37;13.83;;;10.77;;
8893;SDS011;4483;48.622;9.230;2024-03-08T14:12:07;11.70;;;9.60;;
8893;SDS011;4483;48.622;9.230;2024-03-08T14:14:36;14.23;;;10.60;;
8893;SDS011;4483;48.622;9.230;2024-03-08T14:17:02;12.00;;;9.73;;
8893;SDS011;4483;48.622;9.230;2024-03-08T14:19:29;12.47;;;9.77;;
8893;SDS011;4483;48.622;9.230;2024-03-08T14:21:56;14.30;;;9.97;;
8893;SDS011;4483;48.622;9.230;2024-03-08T14:24:24;12.97;;;10.10;;
8893;SDS011;4483;48.622;9.230;2024-03-08T14:26:50;14.63;;;10.40;;
8893;SDS011;4483;48.622;9.230;2024-03-08T14:29:17;13.63;;;10.13;;
8893;SDS011;4483;48.622;9.230;2024-03-08T14:31:45;14.77;;;10.70;;
8893;SDS011;4483;48.622;9.230;2024-03-08T14:34:12;15.93;;;10.47;;
8893;SDS011;4483;48.622;9.230;2024-03-08T14:36:39;14.77;;;10.87;;
8893;SDS011;4483;48.622;9.230;2024-03-08T14:39:06;14.50;;;10.97;;
8893;SDS011;4483;48.622;9.230;2024-03-08T14:41:33;14.43;;;10.00;;
8893;SDS011;4483;48.622;9.230;2024-03-08T14:44:00;15.90;;;10.13;;
8893;SDS011;4483;48.622;9.230;2024-03-08T14:46:26;13.83;;;10.67;;
8893;SDS011;4483;48.622;9.230;2024-03-08T14:48:54;14.43;;;10.30;;
8893;SDS011;4483;48.622;9.230;2024-03-08T14:51:22;14.10;;;9.53;;
8893;SDS011;4483;48.622;9.230;2024-03-08T14:53:51;13.60;;;10.30;;
8893;SDS011;4483;48.622;9.230;2024-03-08T14:56:19;13.83;;;10.70;;
8893;SDS011;4483;48.622;9.230;2024-03-08T14:58:46;14.63;;;10.43;;
8893;SDS011;4483;48.622;9.230;2024-03-08T15:01:14;14.77;;;10.47;;
8893;SDS011;4483;48.622;9.230;2024-03-08T15:03:41;15.07;;;10.27;;